sensor_id;sensor_type;location;lat;lon;timestamp;temperature;humidity
23671;DHT22;12012;51.998;7.614;2023-07-16T00:02:22;18.40;10.00
23671;DHT22;12012;51.998;7.614;2023-07-16T00:04:47;18.40;99.90
23671;DHT22;12012;51.998;7.614;2023-07-16T00:07:13;18.40;1.00
23671;DHT22;12012;51.998;7.614;2023-07-16T00:09:38;18.40;99.90
23671;DHT22;12012;51.998;7.614;2023-07-16T00:12:04;18.40;1.00
23671;DHT22;12012;51.998;7.614;2023-07-16T00:14:30;18.40;1.00
23671;DHT22;12012;51.998;7.614;2023-07-16T00:16:56;18.40;1.00
23671;DHT22;12012;51.998;7.614;2023-07-16T00:19:21;18.30;99.90
23671;DHT22;12012;51.998;7.614;2023-07-16T00:21:47;18.40;99.90
23671;DHT22;12012;51.998;7.614;2023-07-16T00:24:12;18.40;1.00
23671;DHT22;12012;51.998;7.614;2023-07-16T00:26:38;18.40;99.90
23671;DHT22;12012;51.998;7.614;2023-07-16T00:29:03;18.40;1.00
23671;DHT22;12012;51.998;7.614;2023-07-16T00:31:29;18.40;99.90
23671;DHT22;12012;51.998;7.614;2023-07-16T00:33:54;18.40;99.90
23671;DHT22;12012;51.998;7.614;2023-07-16T00:36:20;18.30;99.90
23671;DHT22;12012;51.998;7.614;2023-07-16T00:38:45;18.30;99.90
23671;DHT22;12012;51.998;7.614;2023-07-16T00:41:13;18.30;99.90
23671;DHT22;12012;51.998;7.614;2023-07-16T00:43:39;18.30;1.00
23671;DHT22;12012;51.998;7.614;2023-07-16T00:46:04;18.30;1.00
23671;DHT22;12012;51.998;7.614;2023-07-16T00:48:30;18.30;1.00
23671;DHT22;12012;51.998;7.614;2023-07-16T00:50:56;18.30;99.90
23671;DHT22;12012;51.998;7.614;2023-07-16T00:53:22;18.30;99.90
23671;DHT22;12012;51.998;7.614;2023-07-16T00:55:48;18.30;99.90
23671;DHT22;12012;51.998;7.614;2023-07-16T00:58:13;18.30;99.90
23671;DHT22;12012;51.998;7.614;2023-07-16T01:00:40;18.30;1.00
23671;DHT22;12012;51.998;7.614;2023-07-16T01:03:07;18.30;99.90
23671;DHT22;12012;51.998;7.614;2023-07-16T01:05:50;18.30;1.00
23671;DHT22;12012;51.998;7.614;2023-07-16T01:08:25;18.30;1.00
23671;DHT22;12012;51.998;7.614;2023-07-16T01:10:53;18.30;99.90
23671;DHT22;12012;51.998;7.614;2023-07-16T01:13:19;18.40;36.50
23671;DHT22;12012;51.998;7.614;2023-07-16T01:15:45;18.30;99.90
23671;DHT22;12012;51.998;7.614;2023-07-16T01:18:11;18.30;99.90
23671;DHT22;12012;51.998;7.614;2023-07-16T01:20:37;18.30;99.90
23671;DHT22;12012;51.998;7.614;2023-07-16T01:26:16;18.30;99.90
23671;DHT22;12012;51.998;7.614;2023-07-16T01:31:38;18.30;1.00
23671;DHT22;12012;51.998;7.614;2023-07-16T01:34:06;18.30;99.90
23671;DHT22;12012;51.998;7.614;2023-07-16T01:36:32;18.30;1.00
23671;DHT22;12012;51.998;7.614;2023-07-16T01:38:58;18.20;99.90
23671;DHT22;12012;51.998;7.614;2023-07-16T01:41:24;18.20;99.90
23671;DHT22;12012;51.998;7.614;2023-07-16T01:43:50;18.20;99.90
23671;DHT22;12012;51.998;7.614;2023-07-16T01:46:16;18.20;99.90
23671;DHT22;12012;51.998;7.614;2023-07-16T01:48:42;18.20;99.90
23671;DHT22;12012;51.998;7.614;2023-07-16T01:51:08;18.10;99.90
23671;DHT22;12012;51.998;7.614;2023-07-16T01:53:34;18.20;99.90
23671;DHT22;12012;51.998;7.614;2023-07-16T01:56:01;18.10;99.90
23671;DHT22;12012;51.998;7.614;2023-07-16T01:58:27;18.10;99.90
23671;DHT22;12012;51.998;7.614;2023-07-16T02:00:53;18.10;1.00
23671;DHT22;12012;51.998;7.614;2023-07-16T02:03:18;18.10;1.00
23671;DHT22;12012;51.998;7.614;2023-07-16T02:05:44;18.10;99.90
23671;DHT22;12012;51.998;7.614;2023-07-16T02:08:09;18.10;99.90
23671;DHT22;12012;51.998;7.614;2023-07-16T02:10:35;18.10;99.90
23671;DHT22;12012;51.998;7.614;2023-07-16T02:13:01;18.10;99.90
23671;DHT22;12012;51.998;7.614;2023-07-16T02:15:27;18.20;99.90
23671;DHT22;12012;51.998;7.614;2023-07-16T02:17:52;18.20;99.90
23671;DHT22;12012;51.998;7.614;2023-07-16T02:20:18;18.10;99.90
23671;DHT22;12012;51.998;7.614;2023-07-16T02:22:43;18.10;1.00
23671;DHT22;12012;51.998;7.614;2023-07-16T02:25:09;18.10;1.00
23671;DHT22;12012;51.998;7.614;2023-07-16T02:27:34;18.10;1.00
23671;DHT22;12012;51.998;7.614;2023-07-16T02:30:00;18.00;99.90
23671;DHT22;12012;51.998;7.614;2023-07-16T02:32:26;18.00;1.00
23671;DHT22;12012;51.998;7.614;2023-07-16T02:34:51;17.90;99.90
23671;DHT22;12012;51.998;7.614;2023-07-16T02:37:17;17.90;99.90
23671;DHT22;12012;51.998;7.614;2023-07-16T02:39:44;17.80;1.00
23671;DHT22;12012;51.998;7.614;2023-07-16T02:42:11;17.80;1.00
23671;DHT22;12012;51.998;7.614;2023-07-16T02:44:37;17.80;99.90
23671;DHT22;12012;51.998;7.614;2023-07-16T02:47:07;17.70;99.90
23671;DHT22;12012;51.998;7.614;2023-07-16T02:49:32;17.70;1.00
23671;DHT22;12012;51.998;7.614;2023-07-16T02:51:58;17.60;99.90
23671;DHT22;12012;51.998;7.614;2023-07-16T02:54:24;17.60;1.00
23671;DHT22;12012;51.998;7.614;2023-07-16T02:56:49;17.60;99.90
23671;DHT22;12012;51.998;7.614;2023-07-16T02:59:15;17.50;1.00
23671;DHT22;12012;51.998;7.614;2023-07-16T03:01:40;17.50;1.00
23671;DHT22;12012;51.998;7.614;2023-07-16T03:04:06;17.50;99.90
23671;DHT22;12012;51.998;7.614;2023-07-16T03:06:31;17.40;1.00
23671;DHT22;12012;51.998;7.614;2023-07-16T03:08:57;17.40;1.00
23671;DHT22;12012;51.998;7.614;2023-07-16T03:11:22;17.40;1.00
23671;DHT22;12012;51.998;7.614;2023-07-16T03:13:48;17.30;99.90
23671;DHT22;12012;51.998;7.614;2023-07-16T03:16:14;17.30;99.90
23671;DHT22;12012;51.998;7.614;2023-07-16T03:18:39;17.30;99.90
23671;DHT22;12012;51.998;7.614;2023-07-16T03:21:05;17.30;96.80
23671;DHT22;12012;51.998;7.614;2023-07-16T03:23:31;17.30;99.90
23671;DHT22;12012;51.998;7.614;2023-07-16T03:25:57;17.20;99.90
23671;DHT22;12012;51.998;7.614;2023-07-16T03:28:22;17.20;99.90
23671;DHT22;12012;51.998;7.614;2023-07-16T03:30:49;17.20;99.90
23671;DHT22;12012;51.998;7.614;2023-07-16T03:33:15;17.20;99.90
23671;DHT22;12012;51.998;7.614;2023-07-16T03:35:44;17.20;99.90
23671;DHT22;12012;51.998;7.614;2023-07-16T03:38:10;17.10;97.90
23671;DHT22;12012;51.998;7.614;2023-07-16T03:40:36;17.10;93.70
23671;DHT22;12012;51.998;7.614;2023-07-16T03:43:02;17.10;42.10
23671;DHT22;12012;51.998;7.614;2023-07-16T03:45:27;17.10;1.00
23671;DHT22;12012;51.998;7.614;2023-07-16T03:47:53;17.10;99.90
23671;DHT22;12012;51.998;7.614;2023-07-16T03:50:19;17.10;99.90
23671;DHT22;12012;51.998;7.614;2023-07-16T03:52:44;17.10;99.90
23671;DHT22;12012;51.998;7.614;2023-07-16T03:55:10;17.20;99.90
23671;DHT22;12012;51.998;7.614;2023-07-16T03:57:36;17.20;99.90
23671;DHT22;12012;51.998;7.614;2023-07-16T04:00:05;17.20;99.90
23671;DHT22;12012;51.998;7.614;2023-07-16T04:02:33;17.20;99.90
23671;DHT22;12012;51.998;7.614;2023-07-16T04:04:58;17.20;99.90
23671;DHT22;12012;51.998;7.614;2023-07-16T04:07:24;17.20;99.90
23671;DHT22;12012;51.998;7.614;2023-07-16T04:09:51;17.20;99.90
23671;DHT22;12012;51.998;7.614;2023-07-16T04:12:16;17.30;99.90
23671;DHT22;12012;51.998;7.614;2023-07-16T04:14:42;17.20;99.90
23671;DHT22;12012;51.998;7.614;2023-07-16T04:17:08;17.20;99.90
23671;DHT22;12012;51.998;7.614;2023-07-16T04:19:33;17.30;99.90
23671;DHT22;12012;51.998;7.614;2023-07-16T04:21:59;17.30;99.90
23671;DHT22;12012;51.998;7.614;2023-07-16T04:24:25;17.30;99.90
23671;DHT22;12012;51.998;7.614;2023-07-16T04:26:52;17.30;99.90
23671;DHT22;12012;51.998;7.614;2023-07-16T04:29:18;17.40;99.90
23671;DHT22;12012;51.998;7.614;2023-07-16T04:31:44;17.40;99.90
23671;DHT22;12012;51.998;7.614;2023-07-16T04:34:09;17.40;99.90
23671;DHT22;12012;51.998;7.614;2023-07-16T04:36:35;17.50;99.90
23671;DHT22;12012;51.998;7.614;2023-07-16T04:39:00;17.50;99.90
23671;DHT22;12012;51.998;7.614;2023-07-16T04:41:27;17.50;99.90
23671;DHT22;12012;51.998;7.614;2023-07-16T04:43:52;17.50;99.90
23671;DHT22;12012;51.998;7.614;2023-07-16T04:46:18;17.60;99.90
23671;DHT22;12012;51.998;7.614;2023-07-16T04:48:44;17.60;99.90
23671;DHT22;12012;51.998;7.614;2023-07-16T04:51:09;17.70;99.90
23671;DHT22;12012;51.998;7.614;2023-07-16T04:53:35;17.70;99.90
23671;DHT22;12012;51.998;7.614;2023-07-16T04:56:01;17.70;85.60
23671;DHT22;12012;51.998;7.614;2023-07-16T04:58:26;17.80;1.00
23671;DHT22;12012;51.998;7.614;2023-07-16T05:00:52;17.80;99.90
23671;DHT22;12012;51.998;7.614;2023-07-16T05:03:17;17.90;1.00
23671;DHT22;12012;51.998;7.614;2023-07-16T05:05:43;17.90;1.00
23671;DHT22;12012;51.998;7.614;2023-07-16T05:08:08;18.00;99.90
23671;DHT22;12012;51.998;7.614;2023-07-16T05:10:34;18.00;99.90
23671;DHT22;12012;51.998;7.614;2023-07-16T05:12:59;18.10;99.90
23671;DHT22;12012;51.998;7.614;2023-07-16T05:15:25;18.10;99.90
23671;DHT22;12012;51.998;7.614;2023-07-16T05:17:51;18.10;1.00
23671;DHT22;12012;51.998;7.614;2023-07-16T05:20:16;18.20;99.90
23671;DHT22;12012;51.998;7.614;2023-07-16T05:22:42;18.10;1.00
23671;DHT22;12012;51.998;7.614;2023-07-16T05:25:08;18.20;99.90
23671;DHT22;12012;51.998;7.614;2023-07-16T05:27:34;18.20;99.90
23671;DHT22;12012;51.998;7.614;2023-07-16T05:30:01;18.20;1.00
23671;DHT22;12012;51.998;7.614;2023-07-16T05:32:26;18.20;99.90
23671;DHT22;12012;51.998;7.614;2023-07-16T05:34:52;18.20;99.90
23671;DHT22;12012;51.998;7.614;2023-07-16T05:37:17;18.30;99.90
23671;DHT22;12012;51.998;7.614;2023-07-16T05:39:43;18.30;99.90
23671;DHT22;12012;51.998;7.614;2023-07-16T05:42:08;18.30;99.90
23671;DHT22;12012;51.998;7.614;2023-07-16T05:44:35;18.40;99.90
23671;DHT22;12012;51.998;7.614;2023-07-16T05:47:01;18.40;1.00
23671;DHT22;12012;51.998;7.614;2023-07-16T05:49:26;18.40;1.00
23671;DHT22;12012;51.998;7.614;2023-07-16T05:51:52;18.40;1.00
23671;DHT22;12012;51.998;7.614;2023-07-16T05:54:18;18.40;1.00
23671;DHT22;12012;51.998;7.614;2023-07-16T05:56:43;18.50;1.00
23671;DHT22;12012;51.998;7.614;2023-07-16T05:59:09;18.50;1.00
23671;DHT22;12012;51.998;7.614;2023-07-16T06:01:35;18.60;1.00
23671;DHT22;12012;51.998;7.614;2023-07-16T06:04:01;18.60;99.90
23671;DHT22;12012;51.998;7.614;2023-07-16T06:06:28;18.70;99.90
23671;DHT22;12012;51.998;7.614;2023-07-16T06:08:54;18.70;99.90
23671;DHT22;12012;51.998;7.614;2023-07-16T06:11:19;18.70;99.90
23671;DHT22;12012;51.998;7.614;2023-07-16T06:13:45;18.80;99.90
23671;DHT22;12012;51.998;7.614;2023-07-16T06:16:11;18.90;99.90
23671;DHT22;12012;51.998;7.614;2023-07-16T06:18:37;18.90;99.90
23671;DHT22;12012;51.998;7.614;2023-07-16T06:21:02;18.90;99.90
23671;DHT22;12012;51.998;7.614;2023-07-16T06:23:28;19.00;99.90
23671;DHT22;12012;51.998;7.614;2023-07-16T06:25:57;19.10;99.90
23671;DHT22;12012;51.998;7.614;2023-07-16T06:28:22;19.10;99.90
23671;DHT22;12012;51.998;7.614;2023-07-16T06:30:49;19.10;99.90
23671;DHT22;12012;51.998;7.614;2023-07-16T06:33:15;19.10;99.90
23671;DHT22;12012;51.998;7.614;2023-07-16T06:35:44;19.20;99.90
23671;DHT22;12012;51.998;7.614;2023-07-16T06:38:10;19.20;99.90
23671;DHT22;12012;51.998;7.614;2023-07-16T06:40:35;19.30;99.90
23671;DHT22;12012;51.998;7.614;2023-07-16T06:43:01;19.30;98.20
23671;DHT22;12012;51.998;7.614;2023-07-16T06:45:26;19.40;85.40
23671;DHT22;12012;51.998;7.614;2023-07-16T06:47:52;19.50;75.60
23671;DHT22;12012;51.998;7.614;2023-07-16T06:50:18;19.60;72.80
23671;DHT22;12012;51.998;7.614;2023-07-16T06:52:43;19.70;48.30
23671;DHT22;12012;51.998;7.614;2023-07-16T06:55:09;19.80;36.20
23671;DHT22;12012;51.998;7.614;2023-07-16T06:57:34;19.90;13.20
23671;DHT22;12012;51.998;7.614;2023-07-16T07:00:00;20.00;5.40
23671;DHT22;12012;51.998;7.614;2023-07-16T07:02:25;20.00;5.60
23671;DHT22;12012;51.998;7.614;2023-07-16T07:04:51;20.10;1.00
23671;DHT22;12012;51.998;7.614;2023-07-16T07:07:17;20.20;1.00
23671;DHT22;12012;51.998;7.614;2023-07-16T07:09:42;20.30;1.00
23671;DHT22;12012;51.998;7.614;2023-07-16T07:12:08;20.40;1.00
23671;DHT22;12012;51.998;7.614;2023-07-16T07:14:34;20.40;1.00
23671;DHT22;12012;51.998;7.614;2023-07-16T07:16:59;20.40;1.00
23671;DHT22;12012;51.998;7.614;2023-07-16T07:19:25;20.50;1.00
23671;DHT22;12012;51.998;7.614;2023-07-16T07:21:51;20.50;1.00
23671;DHT22;12012;51.998;7.614;2023-07-16T07:24:16;20.60;1.00
23671;DHT22;12012;51.998;7.614;2023-07-16T07:26:42;20.70;1.00
23671;DHT22;12012;51.998;7.614;2023-07-16T07:29:08;20.80;1.00
23671;DHT22;12012;51.998;7.614;2023-07-16T07:31:33;20.80;1.00
23671;DHT22;12012;51.998;7.614;2023-07-16T07:33:59;20.90;1.00
23671;DHT22;12012;51.998;7.614;2023-07-16T07:36:25;21.00;1.00
23671;DHT22;12012;51.998;7.614;2023-07-16T07:38:50;21.10;1.00
23671;DHT22;12012;51.998;7.614;2023-07-16T07:41:16;21.10;1.00
23671;DHT22;12012;51.998;7.614;2023-07-16T07:43:41;21.10;1.00
23671;DHT22;12012;51.998;7.614;2023-07-16T07:46:07;21.20;1.00
23671;DHT22;12012;51.998;7.614;2023-07-16T07:48:32;21.20;1.00
23671;DHT22;12012;51.998;7.614;2023-07-16T07:50:58;21.10;1.00
23671;DHT22;12012;51.998;7.614;2023-07-16T07:53:23;21.10;1.00
23671;DHT22;12012;51.998;7.614;2023-07-16T07:55:49;21.00;1.00
23671;DHT22;12012;51.998;7.614;2023-07-16T07:58:14;20.90;1.00
23671;DHT22;12012;51.998;7.614;2023-07-16T08:00:40;20.80;1.00
23671;DHT22;12012;51.998;7.614;2023-07-16T08:03:06;20.80;1.00
23671;DHT22;12012;51.998;7.614;2023-07-16T08:05:31;20.90;1.00
23671;DHT22;12012;51.998;7.614;2023-07-16T08:07:58;21.00;1.00
23671;DHT22;12012;51.998;7.614;2023-07-16T08:10:24;21.20;1.00
23671;DHT22;12012;51.998;7.614;2023-07-16T08:12:50;21.50;1.00
23671;DHT22;12012;51.998;7.614;2023-07-16T08:15:15;21.90;1.00
23671;DHT22;12012;51.998;7.614;2023-07-16T08:17:42;22.20;1.00
23671;DHT22;12012;51.998;7.614;2023-07-16T08:20:08;22.40;1.00
23671;DHT22;12012;51.998;7.614;2023-07-16T08:22:33;22.70;1.00
23671;DHT22;12012;51.998;7.614;2023-07-16T08:24:59;22.90;1.00
23671;DHT22;12012;51.998;7.614;2023-07-16T08:27:25;23.20;1.00
23671;DHT22;12012;51.998;7.614;2023-07-16T08:29:50;23.60;1.00
23671;DHT22;12012;51.998;7.614;2023-07-16T08:32:16;24.00;1.00
23671;DHT22;12012;51.998;7.614;2023-07-16T08:34:41;24.40;1.00
23671;DHT22;12012;51.998;7.614;2023-07-16T08:37:07;24.50;1.00
23671;DHT22;12012;51.998;7.614;2023-07-16T08:39:33;24.60;1.00
23671;DHT22;12012;51.998;7.614;2023-07-16T08:41:59;24.80;1.00
23671;DHT22;12012;51.998;7.614;2023-07-16T08:44:24;24.80;1.00
23671;DHT22;12012;51.998;7.614;2023-07-16T08:46:51;24.90;1.00
23671;DHT22;12012;51.998;7.614;2023-07-16T08:49:18;25.10;1.00
23671;DHT22;12012;51.998;7.614;2023-07-16T08:51:47;25.30;1.00
23671;DHT22;12012;51.998;7.614;2023-07-16T08:54:13;25.50;1.00
23671;DHT22;12012;51.998;7.614;2023-07-16T08:56:43;25.60;1.00
23671;DHT22;12012;51.998;7.614;2023-07-16T08:59:10;25.80;1.00
23671;DHT22;12012;51.998;7.614;2023-07-16T09:01:36;26.10;1.00
23671;DHT22;12012;51.998;7.614;2023-07-16T09:04:02;26.40;1.00
23671;DHT22;12012;51.998;7.614;2023-07-16T09:06:28;26.60;1.00
23671;DHT22;12012;51.998;7.614;2023-07-16T09:08:53;26.80;1.00
23671;DHT22;12012;51.998;7.614;2023-07-16T09:11:20;26.80;1.00
23671;DHT22;12012;51.998;7.614;2023-07-16T09:13:50;26.60;1.00
23671;DHT22;12012;51.998;7.614;2023-07-16T09:16:18;26.50;1.00
23671;DHT22;12012;51.998;7.614;2023-07-16T09:18:44;26.40;1.00
23671;DHT22;12012;51.998;7.614;2023-07-16T09:21:10;26.20;1.00
23671;DHT22;12012;51.998;7.614;2023-07-16T09:23:36;26.20;1.00
23671;DHT22;12012;51.998;7.614;2023-07-16T09:26:02;26.20;1.00
23671;DHT22;12012;51.998;7.614;2023-07-16T09:28:31;26.10;1.00
23671;DHT22;12012;51.998;7.614;2023-07-16T09:31:06;25.90;1.00
23671;DHT22;12012;51.998;7.614;2023-07-16T09:33:32;25.80;1.00
23671;DHT22;12012;51.998;7.614;2023-07-16T09:35:58;25.90;1.00
23671;DHT22;12012;51.998;7.614;2023-07-16T09:38:24;25.80;1.00
23671;DHT22;12012;51.998;7.614;2023-07-16T09:40:51;25.60;1.00
23671;DHT22;12012;51.998;7.614;2023-07-16T09:43:17;25.90;1.00
23671;DHT22;12012;51.998;7.614;2023-07-16T09:45:43;26.20;1.00
23671;DHT22;12012;51.998;7.614;2023-07-16T09:48:09;26.10;1.00
23671;DHT22;12012;51.998;7.614;2023-07-16T09:50:36;25.90;1.00
23671;DHT22;12012;51.998;7.614;2023-07-16T09:53:04;25.80;1.00
23671;DHT22;12012;51.998;7.614;2023-07-16T09:55:32;25.80;1.00
23671;DHT22;12012;51.998;7.614;2023-07-16T09:58:01;25.90;1.00
23671;DHT22;12012;51.998;7.614;2023-07-16T10:00:27;26.30;1.00
23671;DHT22;12012;51.998;7.614;2023-07-16T10:02:54;26.50;1.00
23671;DHT22;12012;51.998;7.614;2023-07-16T10:05:27;26.90;1.00
23671;DHT22;12012;51.998;7.614;2023-07-16T10:07:58;27.10;1.00
23671;DHT22;12012;51.998;7.614;2023-07-16T10:10:38;27.10;1.00
23671;DHT22;12012;51.998;7.614;2023-07-16T10:13:06;27.00;1.00
23671;DHT22;12012;51.998;7.614;2023-07-16T10:15:32;26.90;1.00
23671;DHT22;12012;51.998;7.614;2023-07-16T10:17:58;26.50;1.00
23671;DHT22;12012;51.998;7.614;2023-07-16T10:20:39;26.70;1.00
23671;DHT22;12012;51.998;7.614;2023-07-16T10:23:12;26.50;1.00
23671;DHT22;12012;51.998;7.614;2023-07-16T10:25:38;26.20;1.00
23671;DHT22;12012;51.998;7.614;2023-07-16T10:28:04;26.30;1.00
23671;DHT22;12012;51.998;7.614;2023-07-16T10:30:30;26.30;1.00
23671;DHT22;12012;51.998;7.614;2023-07-16T10:32:56;26.20;1.00
23671;DHT22;12012;51.998;7.614;2023-07-16T10:35:22;25.90;1.00
23671;DHT22;12012;51.998;7.614;2023-07-16T10:37:47;25.60;1.00
23671;DHT22;12012;51.998;7.614;2023-07-16T10:40:14;25.30;1.00
23671;DHT22;12012;51.998;7.614;2023-07-16T10:42:43;25.60;1.00
23671;DHT22;12012;51.998;7.614;2023-07-16T10:45:10;25.90;1.00
23671;DHT22;12012;51.998;7.614;2023-07-16T10:47:38;25.90;1.00
23671;DHT22;12012;51.998;7.614;2023-07-16T10:50:06;25.60;1.00
23671;DHT22;12012;51.998;7.614;2023-07-16T10:52:33;25.60;1.00
23671;DHT22;12012;51.998;7.614;2023-07-16T10:54:59;25.80;1.00
23671;DHT22;12012;51.998;7.614;2023-07-16T10:57:25;26.30;1.00
23671;DHT22;12012;51.998;7.614;2023-07-16T10:59:51;26.80;1.00
23671;DHT22;12012;51.998;7.614;2023-07-16T11:02:17;27.40;1.00
23671;DHT22;12012;51.998;7.614;2023-07-16T11:04:47;27.60;1.00
23671;DHT22;12012;51.998;7.614;2023-07-16T11:07:13;27.60;1.00
23671;DHT22;12012;51.998;7.614;2023-07-16T11:10:00;27.70;1.00
23671;DHT22;12012;51.998;7.614;2023-07-16T11:12:28;27.40;1.00
23671;DHT22;12012;51.998;7.614;2023-07-16T11:14:55;27.00;1.00
23671;DHT22;12012;51.998;7.614;2023-07-16T11:17:23;27.10;1.00
23671;DHT22;12012;51.998;7.614;2023-07-16T11:19:51;26.80;1.00
23671;DHT22;12012;51.998;7.614;2023-07-16T11:22:17;26.50;1.00
23671;DHT22;12012;51.998;7.614;2023-07-16T11:27:18;26.20;1.00
23671;DHT22;12012;51.998;7.614;2023-07-16T11:29:54;25.90;1.00
23671;DHT22;12012;51.998;7.614;2023-07-16T11:32:30;25.60;1.00
23671;DHT22;12012;51.998;7.614;2023-07-16T11:34:57;25.50;1.00
23671;DHT22;12012;51.998;7.614;2023-07-16T11:37:28;25.70;1.00
23671;DHT22;12012;51.998;7.614;2023-07-16T11:39:58;26.00;1.00
23671;DHT22;12012;51.998;7.614;2023-07-16T11:42:32;25.90;1.00
23671;DHT22;12012;51.998;7.614;2023-07-16T11:44:59;25.70;1.00
23671;DHT22;12012;51.998;7.614;2023-07-16T11:47:25;25.50;1.00
23671;DHT22;12012;51.998;7.614;2023-07-16T11:49:51;25.70;1.00
23671;DHT22;12012;51.998;7.614;2023-07-16T11:52:27;26.30;1.00
23671;DHT22;12012;51.998;7.614;2023-07-16T11:54:55;26.90;1.00
23671;DHT22;12012;51.998;7.614;2023-07-16T11:57:21;26.80;1.00
23671;DHT22;12012;51.998;7.614;2023-07-16T11:59:47;26.40;1.00
23671;DHT22;12012;51.998;7.614;2023-07-16T12:02:13;26.10;1.00
23671;DHT22;12012;51.998;7.614;2023-07-16T12:04:38;25.90;1.00
23671;DHT22;12012;51.998;7.614;2023-07-16T12:07:04;25.90;1.00
23671;DHT22;12012;51.998;7.614;2023-07-16T12:09:30;26.20;1.00
23671;DHT22;12012;51.998;7.614;2023-07-16T12:11:56;26.20;1.00
23671;DHT22;12012;51.998;7.614;2023-07-16T12:14:22;26.30;1.00
23671;DHT22;12012;51.998;7.614;2023-07-16T12:16:47;26.30;1.00
23671;DHT22;12012;51.998;7.614;2023-07-16T12:19:13;26.40;1.00
23671;DHT22;12012;51.998;7.614;2023-07-16T12:21:39;26.40;1.00
23671;DHT22;12012;51.998;7.614;2023-07-16T12:24:04;26.30;1.00
23671;DHT22;12012;51.998;7.614;2023-07-16T12:26:30;26.10;1.00
23671;DHT22;12012;51.998;7.614;2023-07-16T12:28:56;25.70;1.00
23671;DHT22;12012;51.998;7.614;2023-07-16T12:31:22;25.40;1.00
23671;DHT22;12012;51.998;7.614;2023-07-16T12:33:48;25.20;1.00
23671;DHT22;12012;51.998;7.614;2023-07-16T12:36:14;25.20;1.00
23671;DHT22;12012;51.998;7.614;2023-07-16T12:38:40;25.50;1.00
23671;DHT22;12012;51.998;7.614;2023-07-16T12:41:06;26.00;1.00
23671;DHT22;12012;51.998;7.614;2023-07-16T12:43:32;26.40;1.00
23671;DHT22;12012;51.998;7.614;2023-07-16T12:46:03;26.60;1.00
23671;DHT22;12012;51.998;7.614;2023-07-16T12:48:29;26.80;1.00
23671;DHT22;12012;51.998;7.614;2023-07-16T12:50:55;26.80;1.00
23671;DHT22;12012;51.998;7.614;2023-07-16T12:53:20;26.70;1.00
23671;DHT22;12012;51.998;7.614;2023-07-16T12:55:46;26.70;1.00
23671;DHT22;12012;51.998;7.614;2023-07-16T12:58:12;26.90;1.00
23671;DHT22;12012;51.998;7.614;2023-07-16T13:00:37;27.00;1.00
23671;DHT22;12012;51.998;7.614;2023-07-16T13:03:03;26.90;1.00
23671;DHT22;12012;51.998;7.614;2023-07-16T13:05:29;27.00;1.00
23671;DHT22;12012;51.998;7.614;2023-07-16T13:07:55;27.10;1.00
23671;DHT22;12012;51.998;7.614;2023-07-16T13:10:20;27.10;1.00
23671;DHT22;12012;51.998;7.614;2023-07-16T13:12:46;27.10;1.00
23671;DHT22;12012;51.998;7.614;2023-07-16T13:15:12;27.20;1.00
23671;DHT22;12012;51.998;7.614;2023-07-16T13:17:37;27.30;1.00
23671;DHT22;12012;51.998;7.614;2023-07-16T13:20:03;28.30;1.00
23671;DHT22;12012;51.998;7.614;2023-07-16T13:22:30;29.00;1.00
23671;DHT22;12012;51.998;7.614;2023-07-16T13:24:56;29.00;1.00
23671;DHT22;12012;51.998;7.614;2023-07-16T13:27:22;29.60;1.00
23671;DHT22;12012;51.998;7.614;2023-07-16T13:29:48;29.50;1.00
23671;DHT22;12012;51.998;7.614;2023-07-16T13:32:14;29.60;1.00
23671;DHT22;12012;51.998;7.614;2023-07-16T13:34:39;29.30;1.00
23671;DHT22;12012;51.998;7.614;2023-07-16T13:37:05;29.10;1.00
23671;DHT22;12012;51.998;7.614;2023-07-16T13:39:31;29.10;1.00
23671;DHT22;12012;51.998;7.614;2023-07-16T13:41:57;29.20;1.00
23671;DHT22;12012;51.998;7.614;2023-07-16T13:44:22;29.40;1.00
23671;DHT22;12012;51.998;7.614;2023-07-16T13:46:48;29.90;1.00
23671;DHT22;12012;51.998;7.614;2023-07-16T13:49:13;30.90;1.00
23671;DHT22;12012;51.998;7.614;2023-07-16T13:51:39;31.60;1.00
23671;DHT22;12012;51.998;7.614;2023-07-16T13:54:05;31.70;1.00
23671;DHT22;12012;51.998;7.614;2023-07-16T13:56:30;31.80;1.00
23671;DHT22;12012;51.998;7.614;2023-07-16T13:58:56;32.10;1.00
23671;DHT22;12012;51.998;7.614;2023-07-16T14:01:22;32.30;1.00
23671;DHT22;12012;51.998;7.614;2023-07-16T14:03:48;32.50;1.00
23671;DHT22;12012;51.998;7.614;2023-07-16T14:06:14;32.10;1.00
23671;DHT22;12012;51.998;7.614;2023-07-16T14:08:39;31.90;1.00
23671;DHT22;12012;51.998;7.614;2023-07-16T14:11:05;32.10;1.00
23671;DHT22;12012;51.998;7.614;2023-07-16T14:13:30;32.20;1.00
23671;DHT22;12012;51.998;7.614;2023-07-16T14:15:56;32.50;1.00
23671;DHT22;12012;51.998;7.614;2023-07-16T14:18:22;32.70;1.00
23671;DHT22;12012;51.998;7.614;2023-07-16T14:20:47;33.00;1.00
23671;DHT22;12012;51.998;7.614;2023-07-16T14:23:13;33.30;1.00
23671;DHT22;12012;51.998;7.614;2023-07-16T14:25:38;33.20;1.00
23671;DHT22;12012;51.998;7.614;2023-07-16T14:28:04;33.20;1.00
23671;DHT22;12012;51.998;7.614;2023-07-16T14:30:30;33.30;1.00
23671;DHT22;12012;51.998;7.614;2023-07-16T14:32:56;33.40;1.00
23671;DHT22;12012;51.998;7.614;2023-07-16T14:35:22;33.30;1.00
23671;DHT22;12012;51.998;7.614;2023-07-16T14:37:48;33.50;1.00
23671;DHT22;12012;51.998;7.614;2023-07-16T14:40:14;33.60;1.00
23671;DHT22;12012;51.998;7.614;2023-07-16T14:42:39;33.50;1.00
23671;DHT22;12012;51.998;7.614;2023-07-16T14:45:06;33.20;1.00
23671;DHT22;12012;51.998;7.614;2023-07-16T14:47:33;32.90;1.00
23671;DHT22;12012;51.998;7.614;2023-07-16T14:49:59;32.60;1.00
23671;DHT22;12012;51.998;7.614;2023-07-16T14:52:25;32.50;1.00
23671;DHT22;12012;51.998;7.614;2023-07-16T14:54:50;32.90;1.00
23671;DHT22;12012;51.998;7.614;2023-07-16T14:57:16;32.90;1.00
23671;DHT22;12012;51.998;7.614;2023-07-16T14:59:42;32.80;1.00
23671;DHT22;12012;51.998;7.614;2023-07-16T15:02:08;32.50;1.00
23671;DHT22;12012;51.998;7.614;2023-07-16T15:04:34;32.50;1.00
23671;DHT22;12012;51.998;7.614;2023-07-16T15:06:59;32.20;1.00
23671;DHT22;12012;51.998;7.614;2023-07-16T15:09:25;31.90;1.00
23671;DHT22;12012;51.998;7.614;2023-07-16T15:11:51;31.70;1.00
23671;DHT22;12012;51.998;7.614;2023-07-16T15:14:16;31.60;1.00
23671;DHT22;12012;51.998;7.614;2023-07-16T15:16:42;31.10;1.00
23671;DHT22;12012;51.998;7.614;2023-07-16T15:19:07;30.70;1.00
23671;DHT22;12012;51.998;7.614;2023-07-16T15:21:37;30.50;1.00
23671;DHT22;12012;51.998;7.614;2023-07-16T15:24:04;30.20;1.00
23671;DHT22;12012;51.998;7.614;2023-07-16T15:26:30;30.20;1.00
23671;DHT22;12012;51.998;7.614;2023-07-16T15:28:57;30.30;1.00
23671;DHT22;12012;51.998;7.614;2023-07-16T15:31:22;30.40;1.00
23671;DHT22;12012;51.998;7.614;2023-07-16T15:33:56;30.50;1.00
23671;DHT22;12012;51.998;7.614;2023-07-16T15:36:22;30.60;1.00
23671;DHT22;12012;51.998;7.614;2023-07-16T15:38:47;30.40;1.00
23671;DHT22;12012;51.998;7.614;2023-07-16T15:41:17;30.40;1.00
23671;DHT22;12012;51.998;7.614;2023-07-16T15:43:50;30.40;1.00